Time;durP1;ratioP1;P1;durP2;ratioP2;P2;SDS_P1;SDS_P2;PMS_P1;PMS_P2;Temp;Humidity;BMP_temperature;BMP_pressure;BME280_temperature;BME280_humidity;BME280_pressure;Samples;Min_cycle;Max_cycle;Signal;HPM_P1;HPM_P2
2022/08/21 00:01:02;;;;;;;9.02;4.95;;;;;;;;;;5033332;28;20049;-71
2022/08/21 00:04:07;;;;;;;13.35;5.13;;;;;;;;;;5033527;28;20485;-71
2022/08/21 00:07:13;;;;;;;16.25;4.80;;;;;;;;;;5033350;28;20048;-71
2022/08/21 00:10:18;;;;;;;12.52;5.03;;;;;;;;;;5033446;28;20056;-71
2022/08/21 00:13:22;;;;;;;14.98;4.75;;;;;;;;;;5032230;28;20044;-71
2022/08/21 00:16:27;;;;;;;10.85;4.88;;;;;;;;;;5033416;28;20048;-71
2022/08/21 00:19:32;;;;;;;13.98;5.20;;;;;;;;;;5032745;28;20044;-71
2022/08/21 00:22:36;;;;;;;12.52;5.55;;;;;;;;;;5032753;28;20052;-71
2022/08/21 00:25:41;;;;;;;15.70;5.75;;;;;;;;;;5032583;28;20413;-71
2022/08/21 00:28:45;;;;;;;14.85;5.50;;;;;;;;;;5032788;28;20496;-71
2022/08/21 00:31:49;;;;;;;13.32;5.53;;;;;;;;;;5032853;28;20056;-71
2022/08/21 00:34:54;;;;;;;15.30;5.68;;;;;;;;;;5032870;28;20052;-71
2022/08/21 00:37:58;;;;;;;11.60;5.00;;;;;;;;;;5032351;28;20500;-71
2022/08/21 00:41:04;;;;;;;16.15;5.72;;;;;;;;;;5032852;28;20040;-71
2022/08/21 00:44:10;;;;;;;14.50;5.07;;;;;;;;;;5032340;28;20068;-71
2022/08/21 00:47:15;;;;;;;14.52;6.40;;;;;;;;;;5032750;28;20044;-71
2022/08/21 00:50:20;;;;;;;11.43;5.65;;;;;;;;;;5032114;28;20040;-71
2022/08/21 00:53:24;;;;;;;18.80;6.22;;;;;;;;;;5032196;28;20215;-71
2022/08/21 00:56:29;;;;;;;14.70;5.35;;;;;;;;;;5032319;28;20037;-71
2022/08/21 00:59:35;;;;;;;16.77;5.57;;;;;;;;;;5032164;28;20388;-71
2022/08/21 01:02:39;;;;;;;14.23;5.60;;;;;;;;;;5032472;28;20048;-71
2022/08/21 01:05:44;;;;;;;13.73;5.65;;;;;;;;;;5031964;28;20052;-71
2022/08/21 01:08:48;;;;;;;12.23;5.50;;;;;;;;;;5032115;28;20048;-71
2022/08/21 01:11:52;;;;;;;11.30;5.55;;;;;;;;;;5032140;28;20048;-71
2022/08/21 01:14:58;;;;;;;12.73;5.97;;;;;;;;;;5031960;28;20040;-71
2022/08/21 01:18:03;;;;;;;17.50;6.43;;;;;;;;;;5031809;28;20044;-71
2022/08/21 01:21:15;;;;;;;14.93;5.80;;;;;;;;;;5031875;28;20044;-71
2022/08/21 01:24:20;;;;;;;10.73;5.35;;;;;;;;;;5031859;28;20056;-70
2022/08/21 01:27:24;;;;;;;15.38;6.40;;;;;;;;;;5031891;28;20041;-71
2022/08/21 01:30:29;;;;;;;16.70;5.88;;;;;;;;;;5031747;28;20233;-71
2022/08/21 01:33:33;;;;;;;15.23;6.00;;;;;;;;;;5031541;28;20048;-71
2022/08/21 01:36:37;;;;;;;14.27;5.72;;;;;;;;;;5031797;28;20072;-71
2022/08/21 01:39:42;;;;;;;11.98;5.07;;;;;;;;;;5031591;28;20492;-71
2022/08/21 01:42:46;;;;;;;10.27;5.82;;;;;;;;;;5031752;28;20040;-71
2022/08/21 01:45:51;;;;;;;12.07;5.28;;;;;;;;;;5031409;28;20056;-71
2022/08/21 01:48:55;;;;;;;13.10;5.50;;;;;;;;;;5031606;28;20044;-71
2022/08/21 01:52:00;;;;;;;10.00;5.03;;;;;;;;;;5031432;28;20044;-71
2022/08/21 01:55:05;;;;;;;9.50;4.97;;;;;;;;;;5032034;28;20048;-71
2022/08/21 01:58:09;;;;;;;11.70;5.47;;;;;;;;;;5031404;28;20037;-71
2022/08/21 02:01:14;;;;;;;12.05;5.35;;;;;;;;;;5031252;28;20323;-71
2022/08/21 02:04:19;;;;;;;11.02;4.78;;;;;;;;;;5031072;28;20052;-70
2022/08/21 02:07:23;;;;;;;12.85;5.10;;;;;;;;;;5031031;28;20397;-71
2022/08/21 02:10:29;;;;;;;8.75;4.22;;;;;;;;;;5031287;28;20045;-71
2022/08/21 02:13:33;;;;;;;14.82;4.60;;;;;;;;;;5031116;28;20034;-71
2022/08/21 02:16:39;;;;;;;11.93;4.25;;;;;;;;;;5031081;28;20311;-71
2022/08/21 02:19:43;;;;;;;8.73;4.07;;;;;;;;;;5031121;28;20045;-71
2022/08/21 02:22:49;;;;;;;8.52;4.15;;;;;;;;;;5031395;28;20045;-71
2022/08/21 02:25:54;;;;;;;12.45;4.55;;;;;;;;;;5030866;28;20045;-71
2022/08/21 02:28:59;;;;;;;9.75;4.07;;;;;;;;;;5031152;28;20052;-71
2022/08/21 02:32:04;;;;;;;11.05;4.43;;;;;;;;;;5031033;28;20038;-71
2022/08/21 02:35:09;;;;;;;12.45;4.93;;;;;;;;;;5030806;28;20104;-72
2022/08/21 02:38:15;;;;;;;8.25;4.43;;;;;;;;;;5029796;28;20048;-71
2022/08/21 02:41:21;;;;;;;9.90;4.72;;;;;;;;;;5031096;28;20173;-71
2022/08/21 02:44:26;;;;;;;7.00;4.10;;;;;;;;;;5030983;28;20041;-71
2022/08/21 02:47:33;;;;;;;15.60;6.28;;;;;;;;;;5031040;28;20034;-71
2022/08/21 02:50:42;;;;;;;20.52;8.15;;;;;;;;;;5030590;28;20045;-71
2022/08/21 02:53:47;;;;;;;13.90;6.82;;;;;;;;;;5030830;28;20055;-71
2022/08/21 02:56:52;;;;;;;11.68;5.50;;;;;;;;;;5030922;28;20056;-71
2022/08/21 02:59:56;;;;;;;13.68;6.45;;;;;;;;;;5030947;28;20044;-71
2022/08/21 03:03:01;;;;;;;11.07;5.30;;;;;;;;;;5030718;28;20200;-71
2022/08/21 03:06:06;;;;;;;14.45;5.78;;;;;;;;;;5030517;28;20512;-71
2022/08/21 03:09:10;;;;;;;17.88;5.88;;;;;;;;;;5030771;28;20056;-71
2022/08/21 03:12:14;;;;;;;10.40;5.32;;;;;;;;;;5030768;28;20048;-71
2022/08/21 03:15:19;;;;;;;15.73;6.05;;;;;;;;;;5032528;28;20036;-71
2022/08/21 03:18:24;;;;;;;14.60;6.15;;;;;;;;;;5034408;28;20048;-71
2022/08/21 03:21:28;;;;;;;14.10;5.93;;;;;;;;;;5034504;28;20053;-71
2022/08/21 03:24:33;;;;;;;11.45;5.90;;;;;;;;;;5034076;28;20045;-70
2022/08/21 03:27:38;;;;;;;9.63;5.95;;;;;;;;;;5034247;28;20037;-71
2022/08/21 03:30:43;;;;;;;9.70;5.18;;;;;;;;;;5034153;28;20037;-71
2022/08/21 03:33:47;;;;;;;13.55;5.50;;;;;;;;;;5033931;28;20033;-71
2022/08/21 03:36:51;;;;;;;13.57;6.72;;;;;;;;;;5033800;28;20040;-71
2022/08/21 03:39:56;;;;;;;14.05;6.00;;;;;;;;;;5033946;28;20076;-71
2022/08/21 03:43:01;;;;;;;15.57;6.47;;;;;;;;;;5034173;28;20307;-71
2022/08/21 03:46:05;;;;;;;13.68;6.38;;;;;;;;;;5033672;28;20536;-71
2022/08/21 03:49:10;;;;;;;11.50;5.78;;;;;;;;;;5033953;28;20052;-71
2022/08/21 03:52:15;;;;;;;15.45;5.70;;;;;;;;;;5033062;28;20044;-71
2022/08/21 03:55:20;;;;;;;13.43;5.70;;;;;;;;;;5034140;28;20033;-71
2022/08/21 03:58:26;;;;;;;14.45;5.32;;;;;;;;;;5033388;28;20045;-71
2022/08/21 04:01:31;;;;;;;14.15;6.22;;;;;;;;;;5033754;28;20048;-71
2022/08/21 04:04:35;;;;;;;10.75;5.10;;;;;;;;;;5033593;28;20060;-71
2022/08/21 04:07:39;;;;;;;12.80;5.10;;;;;;;;;;5033531;28;20044;-71
2022/08/21 04:10:44;;;;;;;10.82;6.10;;;;;;;;;;5033441;28;20044;-71
2022/08/21 04:13:48;;;;;;;13.88;5.47;;;;;;;;;;5032576;28;20041;-71
2022/08/21 04:16:52;;;;;;;11.25;5.63;;;;;;;;;;5033223;28;20592;-71
2022/08/21 04:19:57;;;;;;;12.48;5.70;;;;;;;;;;5033155;28;20064;-71
2022/08/21 04:23:02;;;;;;;15.00;6.13;;;;;;;;;;5032891;28;20040;-70
2022/08/21 04:26:06;;;;;;;12.52;6.15;;;;;;;;;;5032661;28;20061;-71
2022/08/21 04:29:11;;;;;;;13.05;7.22;;;;;;;;;;5020635;28;20049;-71
2022/08/21 04:32:22;;;;;;;15.27;7.57;;;;;;;;;;5033229;28;20044;-71
2022/08/21 04:35:27;;;;;;;15.52;7.95;;;;;;;;;;5032858;28;20052;-71
2022/08/21 04:38:32;;;;;;;17.67;8.60;;;;;;;;;;5032587;28;20048;-71
2022/08/21 04:41:36;;;;;;;14.70;8.55;;;;;;;;;;5032543;28;20039;-71
2022/08/21 04:44:41;;;;;;;17.60;8.70;;;;;;;;;;5031752;28;20052;-71
2022/08/21 04:47:45;;;;;;;19.77;9.65;;;;;;;;;;5032552;28;20397;-71
2022/08/21 04:50:53;;;;;;;15.43;8.80;;;;;;;;;;5032691;28;20112;-71
2022/08/21 04:53:57;;;;;;;13.20;8.13;;;;;;;;;;5032828;28;20393;-70
2022/08/21 04:57:06;;;;;;;14.95;8.45;;;;;;;;;;5032844;28;20044;-70
2022/08/21 05:00:12;;;;;;;16.42;8.63;;;;;;;;;;5032432;28;20503;-71
2022/08/21 05:03:18;;;;;;;13.48;7.80;;;;;;;;;;5031560;28;20053;-71
2022/08/21 05:06:23;;;;;;;21.67;8.80;;;;;;;;;;5032088;28;20056;-71
2022/08/21 05:09:27;;;;;;;21.45;9.20;;;;;;;;;;5032411;28;20041;-71
2022/08/21 05:12:33;;;;;;;24.50;10.88;;;;;;;;;;5032298;28;20040;-71
2022/08/21 05:15:37;;;;;;;19.95;8.65;;;;;;;;;;5032066;28;20528;-71
2022/08/21 05:18:42;;;;;;;14.77;8.80;;;;;;;;;;5032216;28;20045;-71
2022/08/21 05:21:49;;;;;;;15.65;7.85;;;;;;;;;;5032217;28;20060;-71
2022/08/21 05:24:53;;;;;;;16.15;7.03;;;;;;;;;;5031917;28;20409;-71
2022/08/21 05:27:58;;;;;;;11.32;6.45;;;;;;;;;;5031774;28;20052;-71
2022/08/21 05:31:03;;;;;;;13.13;7.45;;;;;;;;;;5031990;28;20405;-71
2022/08/21 05:34:07;;;;;;;17.33;7.68;;;;;;;;;;5031546;28;20049;-71
2022/08/21 05:37:13;;;;;;;11.65;5.93;;;;;;;;;;5031308;28;20052;-71
2022/08/21 05:40:18;;;;;;;15.43;7.10;;;;;;;;;;5031457;28;20100;-71
2022/08/21 05:43:24;;;;;;;13.70;7.20;;;;;;;;;;5031871;28;20048;-70
2022/08/21 05:46:29;;;;;;;14.40;7.53;;;;;;;;;;5031439;28;20056;-71
2022/08/21 05:49:34;;;;;;;14.23;6.15;;;;;;;;;;5031428;28;20040;-71
2022/08/21 05:52:37;;;;;;;10.48;5.78;;;;;;;;;;5031572;28;20053;-71
2022/08/21 05:55:42;;;;;;;12.63;6.60;;;;;;;;;;5031473;28;20091;-71
2022/08/21 05:58:46;;;;;;;18.90;7.22;;;;;;;;;;5031474;28;20040;-71
2022/08/21 06:01:52;;;;;;;15.85;5.10;;;;;;;;;;5031328;28;20040;-71
2022/08/21 06:04:56;;;;;;;10.27;5.97;;;;;;;;;;5031283;28;20057;-71
2022/08/21 06:08:00;;;;;;;16.85;6.93;;;;;;;;;;5031325;28;20052;-71
2022/08/21 06:11:05;;;;;;;11.45;6.88;;;;;;;;;;5031255;28;20044;-71
2022/08/21 06:14:10;;;;;;;12.63;6.32;;;;;;;;;;5031346;28;20053;-71
2022/08/21 06:17:15;;;;;;;17.02;6.47;;;;;;;;;;5031008;28;20045;-71
2022/08/21 06:20:19;;;;;;;11.90;6.82;;;;;;;;;;5031099;28;20534;-71
2022/08/21 06:23:24;;;;;;;14.40;7.38;;;;;;;;;;5031177;28;20060;-71
2022/08/21 06:26:28;;;;;;;14.75;6.35;;;;;;;;;;5030721;28;20061;-71
2022/08/21 06:29:33;;;;;;;16.00;7.18;;;;;;;;;;5030780;28;20037;-71
2022/08/21 06:32:38;;;;;;;19.13;8.30;;;;;;;;;;5030064;28;20044;-71
2022/08/21 06:35:42;;;;;;;16.35;8.35;;;;;;;;;;5030768;28;20500;-71
2022/08/21 06:38:47;;;;;;;16.63;9.50;;;;;;;;;;5030753;28;20036;-71
2022/08/21 06:41:52;;;;;;;19.38;9.07;;;;;;;;;;5030948;28;20045;-71
2022/08/21 06:44:59;;;;;;;17.60;8.85;;;;;;;;;;5030046;28;20056;-71
2022/08/21 06:48:04;;;;;;;21.55;9.10;;;;;;;;;;5030641;28;20044;-71
2022/08/21 06:51:08;;;;;;;24.02;8.88;;;;;;;;;;5034048;28;20044;-71
2022/08/21 06:54:12;;;;;;;16.38;6.95;;;;;;;;;;5034633;28;20052;-72
2022/08/21 06:57:17;;;;;;;13.80;6.22;;;;;;;;;;5034307;28;20036;-72
2022/08/21 07:00:21;;;;;;;12.55;5.78;;;;;;;;;;5034201;28;20053;-73
2022/08/21 07:03:33;;;;;;;14.70;4.82;;;;;;;;;;5034426;28;20501;-72
2022/08/21 07:06:37;;;;;;;12.40;5.03;;;;;;;;;;5034365;28;20068;-72
2022/08/21 07:09:42;;;;;;;9.50;3.88;;;;;;;;;;5034503;28;20393;-72
2022/08/21 07:12:46;;;;;;;12.15;3.25;;;;;;;;;;5034262;28;20045;-72
2022/08/21 07:15:50;;;;;;;12.10;3.53;;;;;;;;;;5034376;28;20443;-72
2022/08/21 07:18:55;;;;;;;10.20;4.38;;;;;;;;;;5034036;28;20040;-72
2022/08/21 07:22:01;;;;;;;11.90;3.90;;;;;;;;;;5034420;28;20044;-73
2022/08/21 07:25:06;;;;;;;8.57;3.30;;;;;;;;;;5033043;28;20056;-73
2022/08/21 07:28:10;;;;;;;10.80;3.85;;;;;;;;;;5034297;28;20041;-73
2022/08/21 07:31:16;;;;;;;9.60;3.40;;;;;;;;;;5034246;28;20044;-73
2022/08/21 07:34:20;;;;;;;11.85;3.67;;;;;;;;;;5033207;28;20033;-73
2022/08/21 07:37:25;;;;;;;11.32;3.15;;;;;;;;;;5033659;28;20409;-72
2022/08/21 07:40:29;;;;;;;12.35;2.80;;;;;;;;;;5033651;28;20096;-73
2022/08/21 07:43:33;;;;;;;6.63;2.95;;;;;;;;;;5033641;28;20040;-73
2022/08/21 07:46:38;;;;;;;5.38;2.38;;;;;;;;;;5033413;28;20046;-73
2022/08/21 07:49:42;;;;;;;13.85;3.38;;;;;;;;;;5033838;28;20387;-73
2022/08/21 07:52:47;;;;;;;10.02;3.10;;;;;;;;;;5033949;28;20397;-73
2022/08/21 07:55:51;;;;;;;7.07;3.13;;;;;;;;;;5033577;28;20215;-73
2022/08/21 07:58:57;;;;;;;7.25;2.85;;;;;;;;;;5033591;28;20041;-73
2022/08/21 08:02:01;;;;;;;9.63;3.03;;;;;;;;;;5033167;28;20363;-73
2022/08/21 08:05:07;;;;;;;7.65;3.58;;;;;;;;;;5033195;28;20057;-73
2022/08/21 08:08:11;;;;;;;9.38;3.38;;;;;;;;;;5033165;28;20488;-73
2022/08/21 08:11:16;;;;;;;9.68;3.05;;;;;;;;;;5032953;28;20378;-73
2022/08/21 08:14:20;;;;;;;11.43;3.28;;;;;;;;;;5033113;28;20042;-73
2022/08/21 08:17:25;;;;;;;7.15;3.03;;;;;;;;;;5033015;28;20040;-73
2022/08/21 08:20:29;;;;;;;10.10;3.10;;;;;;;;;;5033003;28;20509;-73
2022/08/21 08:23:34;;;;;;;7.82;3.35;;;;;;;;;;5032093;28;20056;-73
2022/08/21 08:26:38;;;;;;;7.15;3.20;;;;;;;;;;5032586;28;20374;-73
2022/08/21 08:29:43;;;;;;;7.68;2.88;;;;;;;;;;5032721;28;20473;-73
2022/08/21 08:32:48;;;;;;;6.53;2.85;;;;;;;;;;5031870;28;20473;-73
2022/08/21 08:35:52;;;;;;;7.07;2.40;;;;;;;;;;5031772;28;20034;-73
2022/08/21 08:38:56;;;;;;;6.18;2.30;;;;;;;;;;5032602;28;20037;-73
2022/08/21 08:42:09;;;;;;;8.77;2.30;;;;;;;;;;5032859;28;20045;-73
2022/08/21 08:45:16;;;;;;;6.88;2.28;;;;;;;;;;5032527;28;20042;-73
2022/08/21 08:48:40;;;;;;;7.03;2.42;;;;;;;;;;5032374;28;20049;-73
2022/08/21 08:52:05;;;;;;;7.68;2.67;;;;;;;;;;5032503;28;20370;-73
2022/08/21 08:55:15;;;;;;;7.63;2.50;;;;;;;;;;5031652;28;20037;-73
2022/08/21 08:58:22;;;;;;;7.50;2.70;;;;;;;;;;5031633;28;20050;-73
2022/08/21 09:01:27;;;;;;;7.45;3.28;;;;;;;;;;5032438;28;20037;-73
2022/08/21 09:04:31;;;;;;;7.13;2.58;;;;;;;;;;5032297;28;20046;-73
2022/08/21 09:07:59;;;;;;;6.35;2.58;;;;;;;;;;5032341;28;20045;-73
2022/08/21 09:11:09;;;;;;;7.60;2.20;;;;;;;;;;5031256;28;20365;-73
2022/08/21 09:14:34;;;;;;;7.22;2.30;;;;;;;;;;5031566;28;20034;-72
2022/08/21 09:17:57;;;;;;;9.07;2.40;;;;;;;;;;5032141;28;20029;-73
2022/08/21 09:21:05;;;;;;;6.55;2.50;;;;;;;;;;5031097;28;20034;-73
2022/08/21 09:24:28;;;;;;;5.15;2.38;;;;;;;;;;5032003;28;20038;-73
2022/08/21 09:27:33;;;;;;;6.32;2.60;;;;;;;;;;5030770;28;20050;-73
2022/08/21 09:30:42;;;;;;;5.18;2.20;;;;;;;;;;5031734;28;20398;-73
2022/08/21 09:33:46;;;;;;;6.18;2.60;;;;;;;;;;5031594;28;20049;-73
2022/08/21 09:36:51;;;;;;;5.80;2.30;;;;;;;;;;5031253;28;20041;-73
2022/08/21 09:39:57;;;;;;;5.07;2.35;;;;;;;;;;5031235;28;20041;-73
2022/08/21 09:43:07;;;;;;;6.10;2.25;;;;;;;;;;5031440;28;20038;-73
2022/08/21 09:46:32;;;;;;;6.05;2.58;;;;;;;;;;5031526;28;20049;-73
2022/08/21 09:49:37;;;;;;;8.85;3.42;;;;;;;;;;5031207;28;20375;-73
2022/08/21 09:52:47;;;;;;;7.85;3.72;;;;;;;;;;5031142;28;20033;-73
2022/08/21 09:59:33;;;;;;;5.10;3.08;;;;;;;;;;5030940;28;20033;-73
2022/08/21 10:02:38;;;;;;;6.57;2.90;;;;;;;;;;5031118;28;20045;-73
2022/08/21 10:05:50;;;;;;;5.13;2.92;;;;;;;;;;5030342;28;20033;-73
2022/08/21 10:09:15;;;;;;;7.35;3.30;;;;;;;;;;5030325;28;20489;-73
2022/08/21 10:12:24;;;;;;;5.40;2.63;;;;;;;;;;5031185;28;20037;-73
2022/08/21 10:15:44;;;;;;;7.65;2.85;;;;;;;;;;5031337;28;20041;-72
2022/08/21 10:18:51;;;;;;;5.18;3.15;;;;;;;;;;5019037;28;20374;-73
2022/08/21 10:22:01;;;;;;;6.15;3.10;;;;;;;;;;5031261;28;20484;-73
2022/08/21 10:25:09;;;;;;;5.18;3.25;;;;;;;;;;5030772;28;20045;-73
2022/08/21 10:28:23;;;;;;;5.20;3.30;;;;;;;;;;5030172;28;20037;-73
2022/08/21 10:31:33;;;;;;;5.90;3.00;;;;;;;;;;5031104;28;20041;-73
2022/08/21 10:34:52;;;;;;;4.25;2.67;;;;;;;;;;5030941;28;20041;-73
2022/08/21 10:37:57;;;;;;;7.25;3.03;;;;;;;;;;5030083;28;20045;-73
2022/08/21 10:41:10;;;;;;;8.50;3.13;;;;;;;;;;5030759;28;20033;-73
2022/08/21 10:44:23;;;;;;;6.60;2.50;;;;;;;;;;5030717;28;20037;-73
2022/08/21 10:47:31;;;;;;;8.73;2.95;;;;;;;;;;5030843;28;20053;-73
2022/08/21 10:50:36;;;;;;;6.60;2.70;;;;;;;;;;5030847;28;20041;-73
2022/08/21 10:53:46;;;;;;;4.47;2.72;;;;;;;;;;5029909;28;20034;-73
2022/08/21 10:56:52;;;;;;;6.40;3.08;;;;;;;;;;5030900;28;20366;-73
2022/08/21 11:00:00;;;;;;;11.13;2.88;;;;;;;;;;5030913;28;20033;-73
2022/08/21 11:03:09;;;;;;;4.57;2.60;;;;;;;;;;5029666;28;20299;-73
2022/08/21 11:06:17;;;;;;;4.95;2.47;;;;;;;;;;5029731;28;20050;-73
2022/08/21 11:09:24;;;;;;;7.18;3.05;;;;;;;;;;5030254;28;20041;-73
2022/08/21 11:12:36;;;;;;;9.98;3.72;;;;;;;;;;5029531;28;20037;-73
2022/08/21 11:15:57;;;;;;;7.50;3.50;;;;;;;;;;5030637;28;20041;-72
2022/08/21 11:19:18;;;;;;;5.00;2.95;;;;;;;;;;5030234;28;20033;-73
2022/08/21 11:22:22;;;;;;;7.35;3.17;;;;;;;;;;5029373;28;20041;-73
2022/08/21 11:25:29;;;;;;;7.57;2.33;;;;;;;;;;5030015;28;20045;-73
2022/08/21 11:28:37;;;;;;;5.78;3.20;;;;;;;;;;5030515;28;20037;-73
2022/08/21 11:31:48;;;;;;;5.65;3.80;;;;;;;;;;5030166;28;20037;-73
2022/08/21 11:35:11;;;;;;;4.72;3.10;;;;;;;;;;5030240;28;20033;-73
2022/08/21 11:38:23;;;;;;;8.80;3.42;;;;;;;;;;5033733;28;20037;-73
2022/08/21 11:41:27;;;;;;;8.25;4.07;;;;;;;;;;5034008;28;20038;-73
2022/08/21 11:44:50;;;;;;;9.55;4.35;;;;;;;;;;5032902;28;20045;-72
2022/08/21 11:47:58;;;;;;;5.95;3.40;;;;;;;;;;5032853;28;20041;-73
2022/08/21 11:51:05;;;;;;;9.07;4.00;;;;;;;;;;5033594;28;20037;-73
2022/08/21 11:54:17;;;;;;;5.30;2.70;;;;;;;;;;5033451;28;20288;-73
2022/08/21 11:57:57;;;;;;;9.63;3.20;;;;;;;;;;5033350;28;20041;-73
2022/08/21 12:01:18;;;;;;;4.72;3.20;;;;;;;;;;4975604;28;20043;-72
2022/08/21 12:04:28;;;;;;;5.50;2.95;;;;;;;;;;5032595;28;20034;-73
2022/08/21 12:07:40;;;;;;;6.10;4.05;;;;;;;;;;5033478;28;20472;-73
2022/08/21 12:10:59;;;;;;;6.90;4.28;;;;;;;;;;5032761;28;20366;-73
2022/08/21 12:14:06;;;;;;;7.53;3.47;;;;;;;;;;5033074;28;20053;-73
2022/08/21 12:17:18;;;;;;;8.35;3.72;;;;;;;;;;5033303;28;20045;-73
2022/08/21 12:20:32;;;;;;;7.28;3.20;;;;;;;;;;5033232;28;20034;-73
2022/08/21 12:23:47;;;;;;;7.57;2.75;;;;;;;;;;5032396;28;20037;-73
2022/08/21 12:26:57;;;;;;;7.78;3.05;;;;;;;;;;5033044;28;20497;-72
2022/08/21 12:30:06;;;;;;;7.70;3.00;;;;;;;;;;5033188;28;20276;-73
2022/08/21 12:33:20;;;;;;;6.15;3.20;;;;;;;;;;5033008;28;20045;-73
2022/08/21 12:36:28;;;;;;;5.53;2.63;;;;;;;;;;5032084;28;20034;-73
2022/08/21 12:39:34;;;;;;;6.40;2.65;;;;;;;;;;5033008;28;20045;-72
2022/08/21 12:42:42;;;;;;;4.80;2.42;;;;;;;;;;5032705;28;20390;-73
2022/08/21 12:45:49;;;;;;;7.40;2.85;;;;;;;;;;5032856;28;20038;-72
2022/08/21 12:49:02;;;;;;;4.43;2.60;;;;;;;;;;5031892;28;20492;-73
2022/08/21 12:52:24;;;;;;;5.05;2.90;;;;;;;;;;5032740;28;20482;-73
2022/08/21 12:55:30;;;;;;;5.70;2.90;;;;;;;;;;5032450;28;20033;-73
2022/08/21 12:58:35;;;;;;;9.07;3.70;;;;;;;;;;5032180;28;20037;-73
2022/08/21 13:01:44;;;;;;;5.43;2.90;;;;;;;;;;5032266;28;20045;-73
2022/08/21 13:04:49;;;;;;;9.88;3.03;;;;;;;;;;5032210;28;20041;-73
2022/08/21 13:07:53;;;;;;;6.60;2.90;;;;;;;;;;5031950;28;20296;-73
2022/08/21 13:11:01;;;;;;;8.98;2.80;;;;;;;;;;5032159;28;20033;-73
2022/08/21 13:14:07;;;;;;;5.15;2.92;;;;;;;;;;5032217;28;20144;-73
2022/08/21 13:17:12;;;;;;;8.48;2.65;;;;;;;;;;5031203;28;20037;-73
2022/08/21 13:20:24;;;;;;;7.40;3.08;;;;;;;;;;5031168;28;20045;-73
2022/08/21 13:23:30;;;;;;;11.57;3.70;;;;;;;;;;5031371;28;20470;-72
2022/08/21 13:26:35;;;;;;;6.30;3.42;;;;;;;;;;5031708;28;20052;-73
2022/08/21 13:29:39;;;;;;;6.53;3.10;;;;;;;;;;5031936;28;20363;-73
2022/08/21 13:32:45;;;;;;;8.52;3.75;;;;;;;;;;5030927;28;20033;-73
2022/08/21 13:36:00;;;;;;;5.68;2.88;;;;;;;;;;5031847;28;20033;-73
2022/08/21 13:39:07;;;;;;;9.45;3.67;;;;;;;;;;5031705;28;20362;-73
2022/08/21 13:42:12;;;;;;;15.30;2.45;;;;;;;;;;5031915;28;20041;-73
2022/08/21 13:45:31;;;;;;;4.32;1.67;;;;;;;;;;5031290;28;20500;-72
2022/08/21 13:48:35;;;;;;;6.60;1.55;;;;;;;;;;5031600;28;20037;-72
2022/08/21 13:51:40;;;;;;;4.68;1.90;;;;;;;;;;5031414;28;20034;-72
2022/08/21 13:54:51;;;;;;;8.27;2.30;;;;;;;;;;5030945;28;20041;-72
2022/08/21 13:57:55;;;;;;;;;;;;;;;;;;5031346;28;20041;-72
2022/08/21 14:01:00;;;;;;;5.57;2.35;;;;;;;;;;5031642;28;20304;-72
2022/08/21 14:04:17;;;;;;;5.65;2.00;;;;;;;;;;5030344;28;20354;-72
2022/08/21 14:07:25;;;;;;;5.40;1.83;;;;;;;;;;5030613;28;20053;-73
2022/08/21 14:10:30;;;;;;;9.43;1.60;;;;;;;;;;5031334;28;20368;-73
2022/08/21 14:13:37;;;;;;;4.45;1.85;;;;;;;;;;5031077;28;20382;-72
2022/08/21 14:16:44;;;;;;;7.28;2.08;;;;;;;;;;5030361;28;20481;-72
2022/08/21 14:19:48;;;;;;;4.65;1.70;;;;;;;;;;5030382;28;20489;-72
2022/08/21 14:22:53;;;;;;;3.13;1.35;;;;;;;;;;5031121;28;20037;-72
2022/08/21 14:25:59;;;;;;;4.55;1.70;;;;;;;;;;5029966;28;20049;-72
2022/08/21 14:29:09;;;;;;;6.05;1.90;;;;;;;;;;5030991;28;20288;-72
2022/08/21 14:32:16;;;;;;;5.40;1.83;;;;;;;;;;5030558;28;20041;-72
2022/08/21 14:35:21;;;;;;;3.78;1.75;;;;;;;;;;5031103;28;20037;-72
2022/08/21 14:38:27;;;;;;;4.88;1.75;;;;;;;;;;5030831;28;20053;-72
2022/08/21 14:41:31;;;;;;;5.70;1.60;;;;;;;;;;5030449;28;20041;-72
2022/08/21 14:44:36;;;;;;;7.40;1.70;;;;;;;;;;5031027;28;20037;-72
2022/08/21 14:47:42;;;;;;;5.50;2.00;;;;;;;;;;5030737;28;20050;-72
2022/08/21 14:50:47;;;;;;;3.42;1.42;;;;;;;;;;5030106;28;20033;-72
2022/08/21 14:53:51;;;;;;;8.00;1.90;;;;;;;;;;5031036;28;20037;-72
2022/08/21 14:56:57;;;;;;;6.72;1.50;;;;;;;;;;5031015;28;20362;-72
2022/08/21 15:00:01;;;;;;;3.90;1.30;;;;;;;;;;5030872;28;20037;-72
2022/08/21 15:03:05;;;;;;;4.60;1.48;;;;;;;;;;5030948;28;20495;-72
2022/08/21 15:06:11;;;;;;;6.47;1.90;;;;;;;;;;5029883;28;20045;-72
2022/08/21 15:09:16;;;;;;;8.55;1.88;;;;;;;;;;5030335;28;20041;-71
2022/08/21 15:12:20;;;;;;;5.78;1.73;;;;;;;;;;5033214;28;20038;-72
2022/08/21 15:15:24;;;;;;;5.35;2.00;;;;;;;;;;5034276;28;20038;-72
2022/08/21 15:18:30;;;;;;;5.57;2.17;;;;;;;;;;5034394;28;20037;-71
2022/08/21 15:21:34;;;;;;;9.00;1.90;;;;;;;;;;5034463;28;20374;-72
2022/08/21 15:24:38;;;;;;;6.03;1.70;;;;;;;;;;5034088;28;20292;-72
2022/08/21 15:27:42;;;;;;;9.50;1.88;;;;;;;;;;5034056;28;20406;-72
2022/08/21 15:30:47;;;;;;;3.22;1.27;;;;;;;;;;5034428;28;20135;-72
2022/08/21 15:33:52;;;;;;;3.00;1.42;;;;;;;;;;5033840;28;20038;-72
2022/08/21 15:36:57;;;;;;;5.13;2.03;;;;;;;;;;5034343;28;20037;-72
2022/08/21 15:40:01;;;;;;;7.57;1.90;;;;;;;;;;5034343;28;20045;-71
2022/08/21 15:43:06;;;;;;;6.45;2.05;;;;;;;;;;5033979;28;20037;-71
2022/08/21 15:46:12;;;;;;;9.80;2.50;;;;;;;;;;5034073;28;20041;-71
2022/08/21 15:49:17;;;;;;;7.82;2.38;;;;;;;;;;5033858;28;20374;-71
2022/08/21 15:52:22;;;;;;;8.90;2.13;;;;;;;;;;5033530;28;20042;-71
2022/08/21 15:55:27;;;;;;;7.53;2.40;;;;;;;;;;5033649;28;20037;-71
2022/08/21 15:58:31;;;;;;;7.82;2.00;;;;;;;;;;5033559;28;20033;-71
2022/08/21 16:01:39;;;;;;;9.15;3.90;;;;;;;;;;5033681;28;20488;-71
2022/08/21 16:04:43;;;;;;;7.47;2.83;;;;;;;;;;5034039;28;20362;-71
2022/08/21 16:07:49;;;;;;;9.00;2.17;;;;;;;;;;5033310;28;20084;-71
2022/08/21 16:10:54;;;;;;;5.03;2.13;;;;;;;;;;5032968;28;20029;-71
2022/08/21 16:13:59;;;;;;;6.03;2.00;;;;;;;;;;5033311;28;20037;-72
2022/08/21 16:17:07;;;;;;;3.80;1.98;;;;;;;;;;5032504;28;20469;-71
2022/08/21 16:20:12;;;;;;;10.50;1.90;;;;;;;;;;5032598;28;20390;-71
2022/08/21 16:23:17;;;;;;;8.20;2.30;;;;;;;;;;5033103;28;20049;-71
2022/08/21 16:26:21;;;;;;;8.48;1.90;;;;;;;;;;5032815;28;20041;-72
2022/08/21 16:29:31;;;;;;;4.75;1.90;;;;;;;;;;5033108;28;20037;-72
2022/08/21 16:32:35;;;;;;;6.32;2.08;;;;;;;;;;5033005;28;20485;-72
2022/08/21 16:35:40;;;;;;;16.27;1.77;;;;;;;;;;5033181;28;20045;-72
2022/08/21 16:38:47;;;;;;;6.47;1.85;;;;;;;;;;5032869;28;20040;-72
2022/08/21 16:41:51;;;;;;;4.80;1.60;;;;;;;;;;5033099;28;20525;-72
2022/08/21 16:44:56;;;;;;;4.65;1.92;;;;;;;;;;5032919;28;20037;-72
2022/08/21 16:48:03;;;;;;;6.55;2.00;;;;;;;;;;5034020;28;20049;-72
2022/08/21 16:51:07;;;;;;;10.98;2.00;;;;;;;;;;5032169;28;20033;-72
2022/08/21 16:54:12;;;;;;;4.20;2.20;;;;;;;;;;5031828;28;20052;-72
2022/08/21 16:57:17;;;;;;;7.60;1.63;;;;;;;;;;5032515;28;20045;-72
2022/08/21 17:00:21;;;;;;;4.78;1.95;;;;;;;;;;5032808;28;20049;-72
2022/08/21 17:03:29;;;;;;;4.75;2.00;;;;;;;;;;5032537;28;20062;-72
2022/08/21 17:06:33;;;;;;;6.00;2.33;;;;;;;;;;5032260;28;20045;-72
2022/08/21 17:09:38;;;;;;;4.15;2.00;;;;;;;;;;5032415;28;20034;-72
2022/08/21 17:12:43;;;;;;;6.82;2.05;;;;;;;;;;5032285;28;20371;-72
2022/08/21 17:15:47;;;;;;;9.55;2.70;;;;;;;;;;5032474;28;20033;-72
2022/08/21 17:18:52;;;;;;;4.85;2.53;;;;;;;;;;5032343;28;20042;-72
2022/08/21 17:21:56;;;;;;;5.43;2.20;;;;;;;;;;5031735;28;20029;-72
2022/08/21 17:25:01;;;;;;;8.55;2.83;;;;;;;;;;5032274;28;20049;-71
2022/08/21 17:28:08;;;;;;;7.30;2.83;;;;;;;;;;5032101;28;20045;-71
2022/08/21 17:31:13;;;;;;;7.72;2.50;;;;;;;;;;5020264;28;20362;-71
2022/08/21 17:34:17;;;;;;;4.63;2.45;;;;;;;;;;5030430;28;20045;-71
2022/08/21 17:37:22;;;;;;;7.70;2.63;;;;;;;;;;5031772;28;20041;-72
2022/08/21 17:40:27;;;;;;;7.55;2.95;;;;;;;;;;5032180;28;20037;-72
2022/08/21 17:43:35;;;;;;;7.10;2.72;;;;;;;;;;5031597;28;20042;-72
2022/08/21 17:46:39;;;;;;;10.68;3.42;;;;;;;;;;5031462;28;20041;-72
2022/08/21 17:49:43;;;;;;;11.15;3.20;;;;;;;;;;5031846;28;20113;-72
2022/08/21 17:52:48;;;;;;;16.60;3.03;;;;;;;;;;5031622;28;20044;-72
2022/08/21 17:55:52;;;;;;;7.93;3.13;;;;;;;;;;5031487;28;20044;-72
2022/08/21 17:58:56;;;;;;;6.28;2.72;;;;;;;;;;5031185;28;20034;-71
2022/08/21 18:02:02;;;;;;;6.97;2.92;;;;;;;;;;5031575;28;20057;-72
2022/08/21 18:05:08;;;;;;;10.77;2.72;;;;;;;;;;5019566;28;20033;-72
2022/08/21 18:08:13;;;;;;;6.38;2.50;;;;;;;;;;5030339;28;20392;-72
2022/08/21 18:11:19;;;;;;;9.27;2.70;;;;;;;;;;5031025;28;20038;-72
2022/08/21 18:14:26;;;;;;;10.63;2.42;;;;;;;;;;5031184;28;20042;-72
2022/08/21 18:17:32;;;;;;;7.03;2.35;;;;;;;;;;5031362;28;20071;-72
2022/08/21 18:20:36;;;;;;;6.85;2.60;;;;;;;;;;5031140;28;20485;-72
2022/08/21 18:23:41;;;;;;;7.88;2.63;;;;;;;;;;5030235;28;20041;-72
2022/08/21 18:26:45;;;;;;;7.35;2.53;;;;;;;;;;5030845;28;20046;-72
2022/08/21 18:29:52;;;;;;;10.60;2.70;;;;;;;;;;5030566;28;20037;-72
2022/08/21 18:32:56;;;;;;;4.88;2.60;;;;;;;;;;5030870;28;20049;-72
2022/08/21 18:36:00;;;;;;;6.60;3.20;;;;;;;;;;5030370;28;20378;-72